createdAt,value
2018-09-30T00:01:56.076Z,11.20
2018-09-30T00:04:24.759Z,11.30
2018-09-30T00:06:53.505Z,11.30
2018-09-30T00:09:26.287Z,11.30
2018-09-30T00:11:54.815Z,11.30
2018-09-30T00:14:23.518Z,11.40
2018-09-30T00:16:52.023Z,10.90
2018-09-30T00:19:20.612Z,11.10
2018-09-30T00:21:50.268Z,10.90
2018-09-30T00:24:24.236Z,10.90
2018-09-30T00:27:07.957Z,10.80
2018-09-30T00:29:36.575Z,10.90
2018-09-30T00:32:05.895Z,11.00
2018-09-30T00:34:34.653Z,10.90
2018-09-30T00:37:04.055Z,11.00
2018-09-30T00:39:32.937Z,11.10
2018-09-30T00:42:01.566Z,10.90
2018-09-30T00:44:30.149Z,10.90
2018-09-30T00:46:58.892Z,10.90
2018-09-30T00:49:27.548Z,10.90
2018-09-30T00:51:56.238Z,10.70
2018-09-30T00:54:24.991Z,11.00
2018-09-30T00:56:53.603Z,10.70
2018-09-30T00:59:22.120Z,10.80
2018-09-30T01:01:51.344Z,10.90
2018-09-30T01:04:20.032Z,10.90
2018-09-30T01:06:48.815Z,10.90
2018-09-30T01:09:17.436Z,10.70
2018-09-30T01:11:46.205Z,11.00
2018-09-30T01:14:14.825Z,10.80
2018-09-30T01:16:43.486Z,10.90
2018-09-30T01:19:12.056Z,10.90
2018-09-30T01:21:40.667Z,10.70
2018-09-30T01:24:09.220Z,10.70
2018-09-30T01:26:37.767Z,10.60
2018-09-30T01:29:06.559Z,10.60
2018-09-30T01:31:35.619Z,10.50
2018-09-30T01:34:04.267Z,10.40
2018-09-30T01:36:32.833Z,10.30
2018-09-30T01:39:01.437Z,10.40
2018-09-30T01:41:30.107Z,10.50
2018-09-30T01:43:58.921Z,10.40
2018-09-30T01:46:28.007Z,10.30
2018-09-30T01:48:56.672Z,10.60
2018-09-30T01:51:25.365Z,10.70
2018-09-30T01:53:53.924Z,10.40
2018-09-30T01:56:22.526Z,10.60
2018-09-30T01:58:51.123Z,10.80
2018-09-30T02:01:19.705Z,10.70
2018-09-30T02:03:48.391Z,10.50
2018-09-30T02:06:16.957Z,10.70
2018-09-30T02:08:45.533Z,10.60
2018-09-30T02:11:14.973Z,10.50
2018-09-30T02:13:43.601Z,10.30
2018-09-30T02:16:12.197Z,10.50
2018-09-30T02:18:40.770Z,10.40
2018-09-30T02:21:09.517Z,10.40
2018-09-30T02:23:38.217Z,10.40
2018-09-30T02:26:07.014Z,10.30
2018-09-30T02:28:35.567Z,10.30
2018-09-30T02:31:04.187Z,10.30
2018-09-30T02:33:32.756Z,10.30
2018-09-30T02:36:01.422Z,10.10
2018-09-30T02:38:30.106Z,10.30
2018-09-30T02:40:58.693Z,10.10
2018-09-30T02:43:27.474Z,10.30
2018-09-30T02:45:56.099Z,10.20
2018-09-30T02:48:24.665Z,10.30
2018-09-30T02:50:53.338Z,10.20
2018-09-30T02:53:21.974Z,10.30
2018-09-30T02:55:50.508Z,10.20
2018-09-30T02:58:19.076Z,10.30
2018-09-30T03:00:47.657Z,10.30
2018-09-30T03:03:16.258Z,10.30
2018-09-30T03:05:44.851Z,10.30
2018-09-30T03:08:18.633Z,10.30
2018-09-30T03:10:47.198Z,10.30
2018-09-30T03:13:15.763Z,10.50
2018-09-30T03:15:44.381Z,10.30
2018-09-30T03:18:13.182Z,10.30
2018-09-30T03:20:41.960Z,10.20
2018-09-30T03:23:10.620Z,10.30
2018-09-30T03:25:39.242Z,10.20
2018-09-30T03:28:07.847Z,10.00
2018-09-30T03:30:36.415Z,10.10
2018-09-30T03:33:04.969Z,9.90
2018-09-30T03:35:33.589Z,10.00
2018-09-30T03:38:02.150Z,10.00
2018-09-30T03:40:30.657Z,10.00
2018-09-30T03:42:59.345Z,10.00
2018-09-30T03:45:28.025Z,9.90
2018-09-30T03:47:56.573Z,10.00
2018-09-30T03:50:25.259Z,9.80
2018-09-30T03:52:53.833Z,10.00
2018-09-30T03:55:22.618Z,10.00
2018-09-30T03:57:51.207Z,10.00
2018-09-30T04:00:19.848Z,9.80
2018-09-30T04:02:48.476Z,9.80
2018-09-30T04:05:17.069Z,10.10
2018-09-30T04:07:46.165Z,10.10
2018-09-30T04:10:14.746Z,10.00
2018-09-30T04:12:43.276Z,9.80
2018-09-30T04:15:11.878Z,10.10
2018-09-30T04:17:40.433Z,9.70
2018-09-30T04:20:09.057Z,10.00
2018-09-30T04:22:37.693Z,10.00
2018-09-30T04:25:07.285Z,9.90
2018-09-30T04:27:35.866Z,10.00
2018-09-30T04:30:04.572Z,9.80
2018-09-30T04:32:33.212Z,9.80
2018-09-30T04:35:01.771Z,9.80
2018-09-30T04:37:30.330Z,9.50
2018-09-30T04:39:58.905Z,9.50
2018-09-30T04:42:27.496Z,9.90
2018-09-30T04:44:56.122Z,10.00
2018-09-30T04:47:24.806Z,9.80
2018-09-30T04:49:53.437Z,9.90
2018-09-30T04:52:22.073Z,10.00
2018-09-30T04:54:50.695Z,9.90
2018-09-30T04:57:19.255Z,9.80
2018-09-30T04:59:47.908Z,9.80
2018-09-30T05:02:16.639Z,9.80
2018-09-30T05:04:45.282Z,10.00
2018-09-30T05:07:13.844Z,9.80
2018-09-30T05:09:42.542Z,10.00
2018-09-30T05:12:11.103Z,9.90
2018-09-30T05:14:39.827Z,9.90
2018-09-30T05:17:08.467Z,9.80
2018-09-30T05:19:37.058Z,9.90
2018-09-30T05:22:05.679Z,9.70
2018-09-30T05:24:34.218Z,10.00
2018-09-30T05:27:02.863Z,9.70
2018-09-30T05:29:31.613Z,9.80
2018-09-30T05:32:00.891Z,9.50
2018-09-30T05:34:29.465Z,9.50
2018-09-30T05:36:57.991Z,9.40
2018-09-30T05:39:26.507Z,9.40
2018-09-30T05:41:55.150Z,9.70
2018-09-30T05:44:23.815Z,9.50
2018-09-30T05:46:52.383Z,9.30
2018-09-30T05:49:20.927Z,9.30
2018-09-30T05:51:50.194Z,9.20
2018-09-30T05:54:19.054Z,9.40
2018-09-30T05:56:47.877Z,9.30
2018-09-30T05:59:16.489Z,10.50
2018-09-30T06:01:45.037Z,11.20
2018-09-30T06:04:13.633Z,11.40
2018-09-30T06:06:42.269Z,11.80
2018-09-30T06:09:14.505Z,12.20
2018-09-30T06:11:44.667Z,12.30
2018-09-30T06:14:14.227Z,12.30
2018-09-30T06:16:43.145Z,12.70
2018-09-30T06:19:11.845Z,12.60
2018-09-30T06:21:41.334Z,12.90
2018-09-30T06:24:11.087Z,13.00
2018-09-30T06:26:39.968Z,13.00
2018-09-30T06:29:08.515Z,12.70
2018-09-30T06:31:37.265Z,12.90
2018-09-30T06:34:05.784Z,12.90
2018-09-30T06:36:34.984Z,12.80
2018-09-30T06:39:05.304Z,12.70
2018-09-30T06:41:33.901Z,13.00
2018-09-30T06:44:03.119Z,12.80
2018-09-30T06:46:32.838Z,13.10
2018-09-30T06:49:01.704Z,13.00
2018-09-30T06:51:30.420Z,12.90
2018-09-30T06:53:59.116Z,13.10
2018-09-30T06:56:27.716Z,12.90
2018-09-30T06:58:57.746Z,13.40
2018-09-30T07:01:26.483Z,13.50
2018-09-30T07:03:55.068Z,13.40
2018-09-30T07:06:23.644Z,13.30
2018-09-30T07:08:52.667Z,13.30
2018-09-30T07:11:21.344Z,13.50
2018-09-30T07:13:51.027Z,13.30
2018-09-30T07:16:19.574Z,13.20
2018-09-30T07:18:48.169Z,13.50
2018-09-30T07:21:16.850Z,13.40
2018-09-30T07:23:45.433Z,13.10
2018-09-30T07:26:14.190Z,12.90
2018-09-30T07:28:42.957Z,12.80
2018-09-30T07:31:11.524Z,12.70
2018-09-30T07:33:40.829Z,12.70
2018-09-30T07:36:09.483Z,12.50
2018-09-30T07:38:38.061Z,12.60
2018-09-30T07:41:07.690Z,12.30
2018-09-30T07:43:36.329Z,12.50
2018-09-30T07:46:05.126Z,12.30
2018-09-30T07:48:33.786Z,12.50
2018-09-30T07:51:02.364Z,12.30
2018-09-30T07:53:30.913Z,12.30
2018-09-30T07:55:59.762Z,12.40
2018-09-30T07:58:28.384Z,12.50
2018-09-30T08:00:57.065Z,12.50
2018-09-30T08:03:25.893Z,12.90
2018-09-30T08:05:55.521Z,12.90
2018-09-30T08:08:24.088Z,13.10
2018-09-30T08:10:52.917Z,13.20
2018-09-30T08:13:21.833Z,13.00
2018-09-30T08:15:50.739Z,13.20
2018-09-30T08:18:19.428Z,13.20
2018-09-30T08:20:48.112Z,13.10
2018-09-30T08:23:16.783Z,13.30
2018-09-30T08:25:45.410Z,13.30
2018-09-30T08:28:14.100Z,13.30
2018-09-30T08:30:42.794Z,13.50
2018-09-30T08:33:11.621Z,13.60
2018-09-30T08:35:40.161Z,13.80
2018-09-30T08:38:14.208Z,13.90
2018-09-30T08:40:48.003Z,13.90
2018-09-30T08:43:17.021Z,13.80
2018-09-30T08:45:46.272Z,14.00
2018-09-30T08:48:15.384Z,13.80
2018-09-30T08:50:44.453Z,14.00
2018-09-30T08:53:13.169Z,14.00
2018-09-30T08:55:41.829Z,14.10
2018-09-30T08:58:10.433Z,14.20
2018-09-30T09:00:39.125Z,14.20
2018-09-30T09:03:08.053Z,14.40
2018-09-30T09:05:36.980Z,14.50
2018-09-30T09:08:05.569Z,14.20
2018-09-30T09:10:35.063Z,14.40
2018-09-30T09:13:03.769Z,14.40
2018-09-30T09:15:32.506Z,14.30
2018-09-30T09:18:01.040Z,14.40
2018-09-30T09:20:29.701Z,14.50
2018-09-30T09:22:58.267Z,14.40
2018-09-30T09:25:26.970Z,14.80
2018-09-30T09:27:56.330Z,14.50
2018-09-30T09:30:25.016Z,14.70
2018-09-30T09:32:53.653Z,14.70
2018-09-30T09:35:22.293Z,14.60
2018-09-30T09:37:51.217Z,14.70
2018-09-30T09:40:20.006Z,14.70
2018-09-30T09:42:49.013Z,14.80
2018-09-30T09:45:17.691Z,15.00
2018-09-30T09:47:46.263Z,14.90
2018-09-30T09:50:14.887Z,15.00
2018-09-30T09:52:43.509Z,15.10
2018-09-30T09:55:15.870Z,15.30
2018-09-30T09:57:44.611Z,15.00
2018-09-30T10:00:17.482Z,15.10
2018-09-30T10:02:46.177Z,15.20
2018-09-30T10:05:15.896Z,15.30
2018-09-30T10:07:44.436Z,15.50
2018-09-30T10:10:13.116Z,15.30
2018-09-30T10:12:42.928Z,15.20
2018-09-30T10:15:11.534Z,15.30
2018-09-30T10:17:40.170Z,15.70
2018-09-30T10:20:08.766Z,15.70
2018-09-30T10:22:37.664Z,15.70
2018-09-30T10:25:06.307Z,15.60
2018-09-30T10:27:34.892Z,15.50
2018-09-30T10:30:03.996Z,16.00
2018-09-30T10:32:32.631Z,15.70
2018-09-30T10:35:01.179Z,15.70
2018-09-30T10:37:29.778Z,15.70
2018-09-30T10:39:58.454Z,15.90
2018-09-30T10:42:27.277Z,16.00
2018-09-30T10:44:56.034Z,16.00
2018-09-30T10:47:24.674Z,16.00
2018-09-30T10:49:53.512Z,16.20
2018-09-30T10:52:22.138Z,16.20
2018-09-30T10:54:50.720Z,16.10
2018-09-30T10:57:19.310Z,16.30
2018-09-30T10:59:47.907Z,16.40
2018-09-30T11:02:16.490Z,16.20
2018-09-30T11:04:45.100Z,16.60
2018-09-30T11:07:13.632Z,16.20
2018-09-30T11:09:42.762Z,16.50
2018-09-30T11:12:12.154Z,16.70
2018-09-30T11:14:40.817Z,16.50
2018-09-30T11:17:09.518Z,16.60
2018-09-30T11:19:38.092Z,16.70
2018-09-30T11:22:06.839Z,16.50
2018-09-30T11:24:35.472Z,16.60
2018-09-30T11:27:04.052Z,16.80
2018-09-30T11:29:33.335Z,16.70
2018-09-30T11:32:01.959Z,16.70
2018-09-30T11:34:30.608Z,17.00
2018-09-30T11:36:59.335Z,16.90
2018-09-30T11:39:27.910Z,17.00
2018-09-30T11:41:56.513Z,17.10
2018-09-30T11:44:25.681Z,16.90
2018-09-30T11:46:54.363Z,17.10
2018-09-30T11:49:23.125Z,16.90
2018-09-30T11:51:52.639Z,17.00
2018-09-30T11:54:21.502Z,17.20
2018-09-30T11:56:50.270Z,17.30
2018-09-30T11:59:18.912Z,17.30
2018-09-30T12:01:47.521Z,17.30
2018-09-30T12:04:16.148Z,17.10
2018-09-30T12:06:44.756Z,17.30
2018-09-30T12:09:13.372Z,17.50
2018-09-30T12:11:42.298Z,17.40
2018-09-30T12:14:11.731Z,17.20
2018-09-30T12:16:40.316Z,17.40
2018-09-30T12:19:09.271Z,17.40
2018-09-30T12:21:38.439Z,17.30
2018-09-30T12:24:07.425Z,17.60
2018-09-30T12:26:36.049Z,17.70
2018-09-30T12:29:04.685Z,17.40
2018-09-30T12:31:34.009Z,17.50
2018-09-30T12:34:02.638Z,17.30
2018-09-30T12:36:31.240Z,17.50
2018-09-30T12:38:59.903Z,17.50
2018-09-30T12:41:28.562Z,17.80
2018-09-30T12:43:57.251Z,17.80
2018-09-30T12:46:25.806Z,17.60
2018-09-30T12:48:54.447Z,17.70
2018-09-30T12:51:23.042Z,17.80
2018-09-30T12:53:51.637Z,17.70
2018-09-30T12:56:20.747Z,18.00
2018-09-30T12:58:49.310Z,18.20
2018-09-30T13:01:18.218Z,18.00
2018-09-30T13:03:46.839Z,17.80
2018-09-30T13:06:15.418Z,18.00
2018-09-30T13:08:44.313Z,18.20
2018-09-30T13:11:13.653Z,18.30
2018-09-30T13:13:42.823Z,18.10
2018-09-30T13:16:11.381Z,18.10
2018-09-30T13:18:39.988Z,18.20
2018-09-30T13:21:08.558Z,17.80
2018-09-30T13:23:37.982Z,18.00
2018-09-30T13:26:06.684Z,18.20
2018-09-30T13:28:35.420Z,18.30
2018-09-30T13:31:04.053Z,18.20
2018-09-30T13:33:32.900Z,18.00
2018-09-30T13:36:01.524Z,18.10
2018-09-30T13:38:30.236Z,18.20
2018-09-30T13:40:59.257Z,18.40
2018-09-30T13:43:27.978Z,18.30
2018-09-30T13:45:57.358Z,18.00
2018-09-30T13:48:26.087Z,18.30
2018-09-30T13:50:54.707Z,18.30
2018-09-30T13:53:23.458Z,18.30
2018-09-30T13:55:52.049Z,18.20
2018-09-30T13:58:20.709Z,18.40
2018-09-30T14:00:49.463Z,18.10
2018-09-30T14:03:18.265Z,18.30
2018-09-30T14:05:47.052Z,18.00
2018-09-30T14:08:15.884Z,18.30
2018-09-30T14:10:44.448Z,18.50
2018-09-30T14:13:12.923Z,18.70
2018-09-30T14:15:41.540Z,18.50
2018-09-30T14:18:10.098Z,18.70
2018-09-30T14:20:38.790Z,18.70
2018-09-30T14:23:07.969Z,18.80
2018-09-30T14:25:36.719Z,18.90
2018-09-30T14:28:05.799Z,18.70
2018-09-30T14:30:34.464Z,19.00
2018-09-30T14:33:03.116Z,19.20
2018-09-30T14:35:31.695Z,19.20
2018-09-30T14:38:00.380Z,19.10
2018-09-30T14:40:29.011Z,19.20
2018-09-30T14:42:57.878Z,19.30
2018-09-30T14:45:26.928Z,19.00
2018-09-30T14:47:55.766Z,19.00
2018-09-30T14:50:24.420Z,19.00
2018-09-30T14:52:53.341Z,19.10
2018-09-30T14:55:22.093Z,19.10
2018-09-30T14:57:50.714Z,19.00
2018-09-30T15:00:19.296Z,19.00
2018-09-30T15:02:48.057Z,18.90
2018-09-30T15:05:16.769Z,18.90
2018-09-30T15:07:45.680Z,19.00
2018-09-30T15:10:14.281Z,19.20
2018-09-30T15:12:42.951Z,18.90
2018-09-30T15:15:11.527Z,19.20
2018-09-30T15:17:40.307Z,19.20
2018-09-30T15:20:09.492Z,19.20
2018-09-30T15:22:38.151Z,19.20
2018-09-30T15:25:06.738Z,19.30
2018-09-30T15:27:36.100Z,19.20
2018-09-30T15:30:04.767Z,19.30
2018-09-30T15:32:33.346Z,19.00
2018-09-30T15:35:02.147Z,19.20
2018-09-30T15:37:30.740Z,19.20
2018-09-30T15:39:59.426Z,19.00
2018-09-30T15:42:28.399Z,19.00
2018-09-30T15:44:57.180Z,19.00
2018-09-30T15:47:25.812Z,18.90
2018-09-30T15:49:54.363Z,19.10
2018-09-30T15:52:22.928Z,19.00
2018-09-30T15:54:51.527Z,19.30
2018-09-30T15:57:20.092Z,19.20
2018-09-30T15:59:48.928Z,19.00
2018-09-30T16:02:17.532Z,19.10
2018-09-30T16:04:46.417Z,19.00
2018-09-30T16:07:14.931Z,19.20
2018-09-30T16:09:43.583Z,19.30
2018-09-30T16:12:12.186Z,19.30
2018-09-30T16:14:40.785Z,19.30
2018-09-30T16:17:09.403Z,19.40
2018-09-30T16:19:38.263Z,19.10
2018-09-30T16:22:07.058Z,19.40
2018-09-30T16:24:36.075Z,19.50
2018-09-30T16:27:04.871Z,19.50
2018-09-30T16:29:33.437Z,18.90
2018-09-30T16:32:02.124Z,18.80
2018-09-30T16:34:30.846Z,19.00
2018-09-30T16:36:59.452Z,18.70
2018-09-30T16:39:28.302Z,18.70
2018-09-30T16:41:56.872Z,18.50
2018-09-30T16:44:25.663Z,18.40
2018-09-30T16:46:54.366Z,18.70
2018-09-30T16:49:23.670Z,18.50
2018-09-30T16:51:52.287Z,18.60
2018-09-30T16:54:21.853Z,18.40
2018-09-30T16:56:50.496Z,18.40
2018-09-30T16:59:19.061Z,18.30
2018-09-30T17:01:48.056Z,18.10
2018-09-30T17:04:16.688Z,18.00
2018-09-30T17:06:45.345Z,17.80
2018-09-30T17:09:14.107Z,17.70
2018-09-30T17:11:43.275Z,17.80
2018-09-30T17:14:11.970Z,17.70
2018-09-30T17:16:40.672Z,17.50
2018-09-30T17:19:10.074Z,17.40
2018-09-30T17:21:38.696Z,17.50
2018-09-30T17:24:07.551Z,17.40
2018-09-30T17:26:36.175Z,17.10
2018-09-30T17:29:05.104Z,17.10
2018-09-30T17:31:33.759Z,17.20
2018-09-30T17:34:02.303Z,17.20
2018-09-30T17:36:30.985Z,16.80
2018-09-30T17:39:00.483Z,17.30
2018-09-30T17:41:29.738Z,16.90
2018-09-30T17:43:58.361Z,17.30
2018-09-30T17:46:26.896Z,17.80
2018-09-30T17:48:55.720Z,17.60
2018-09-30T17:51:24.351Z,17.50
2018-09-30T17:53:53.680Z,17.60
2018-09-30T17:56:23.824Z,17.70
2018-09-30T17:58:52.525Z,17.50
2018-09-30T18:01:21.359Z,17.70
2018-09-30T18:03:49.988Z,17.30
2018-09-30T18:06:18.617Z,17.30
2018-09-30T18:08:48.334Z,17.40
2018-09-30T18:11:17.719Z,17.10
2018-09-30T18:13:46.505Z,16.90
2018-09-30T18:16:15.399Z,16.90
2018-09-30T18:18:44.531Z,16.70
2018-09-30T18:21:13.394Z,16.80
2018-09-30T18:23:42.341Z,16.70
2018-09-30T18:26:11.016Z,16.90
2018-09-30T18:28:39.977Z,16.60
2018-09-30T18:31:08.934Z,16.60
2018-09-30T18:33:37.969Z,16.20
2018-09-30T18:36:07.170Z,16.60
2018-09-30T18:38:36.025Z,16.60
2018-09-30T18:41:04.732Z,16.50
2018-09-30T18:43:33.582Z,16.40
2018-09-30T18:46:02.545Z,16.20
2018-09-30T18:48:32.775Z,16.60
2018-09-30T18:51:04.634Z,16.20
2018-09-30T18:53:33.632Z,16.30
2018-09-30T18:56:02.702Z,16.00
2018-09-30T18:58:31.708Z,16.20
2018-09-30T19:01:01.136Z,16.20
2018-09-30T19:03:30.333Z,15.90
2018-09-30T19:05:59.360Z,16.10
2018-09-30T19:08:28.441Z,16.10
2018-09-30T19:10:57.537Z,15.70
2018-09-30T19:13:26.740Z,15.50
2018-09-30T19:15:56.678Z,15.90
2018-09-30T19:18:25.549Z,15.50
2018-09-30T19:20:54.541Z,15.50
2018-09-30T19:23:23.584Z,15.30
2018-09-30T19:25:52.228Z,15.40
2018-09-30T19:28:20.868Z,15.30
2018-09-30T19:30:49.589Z,15.10
2018-09-30T19:33:18.193Z,15.40
2018-09-30T19:35:46.889Z,15.20
2018-09-30T19:38:15.724Z,15.30
2018-09-30T19:40:44.282Z,15.40
2018-09-30T19:43:12.856Z,15.00
2018-09-30T19:45:41.619Z,15.30
2018-09-30T19:48:11.327Z,15.40
2018-09-30T19:50:39.849Z,15.20
2018-09-30T19:53:08.485Z,15.40
2018-09-30T19:55:37.199Z,15.20
2018-09-30T19:58:05.912Z,15.40
2018-09-30T20:00:34.456Z,15.30
2018-09-30T20:03:03.042Z,15.60
2018-09-30T20:05:31.824Z,15.30
2018-09-30T20:08:00.475Z,15.10
2018-09-30T20:10:29.217Z,15.30
2018-09-30T20:12:58.022Z,15.30
2018-09-30T20:15:26.579Z,15.20
2018-09-30T20:17:55.316Z,15.10
2018-09-30T20:20:24.636Z,15.10
2018-09-30T20:22:54.473Z,15.20
2018-09-30T20:25:23.198Z,15.00
2018-09-30T20:27:51.788Z,15.10
2018-09-30T20:30:20.529Z,15.00
2018-09-30T20:32:49.259Z,14.70
2018-09-30T20:35:18.008Z,15.00
2018-09-30T20:37:46.647Z,14.90
2018-09-30T20:40:15.346Z,14.90
2018-09-30T20:42:43.938Z,15.20
2018-09-30T20:45:12.547Z,15.10
2018-09-30T20:47:41.238Z,15.10
2018-09-30T20:50:09.868Z,15.20
2018-09-30T20:52:38.450Z,15.30
2018-09-30T20:55:07.296Z,15.30
2018-09-30T20:57:37.838Z,15.30
2018-09-30T21:00:06.647Z,15.30
2018-09-30T21:02:35.597Z,15.50
2018-09-30T21:05:16.856Z,15.50
2018-09-30T21:07:45.424Z,15.60
2018-09-30T21:10:14.041Z,15.40
2018-09-30T21:12:42.648Z,15.40
2018-09-30T21:15:11.421Z,15.30
2018-09-30T21:17:39.963Z,15.30
2018-09-30T21:20:08.561Z,15.30
2018-09-30T21:22:37.375Z,15.30
2018-09-30T21:25:06.069Z,15.30
2018-09-30T21:27:34.781Z,15.50
2018-09-30T21:30:03.348Z,15.50
2018-09-30T21:32:32.156Z,15.00
2018-09-30T21:35:00.721Z,15.20
2018-09-30T21:37:29.302Z,15.10
2018-09-30T21:39:58.031Z,15.20
2018-09-30T21:42:26.589Z,14.90
2018-09-30T21:44:55.662Z,14.90
2018-09-30T21:47:24.269Z,14.90
2018-09-30T21:49:52.849Z,14.70
2018-09-30T21:52:21.661Z,15.00
2018-09-30T21:54:50.338Z,15.10
2018-09-30T21:57:18.917Z,15.00
2018-09-30T21:59:47.726Z,14.90
2018-09-30T22:02:16.480Z,15.00
2018-09-30T22:04:45.080Z,15.00
2018-09-30T22:07:13.772Z,15.00
2018-09-30T22:09:42.425Z,15.40
2018-09-30T22:12:11.128Z,15.30
2018-09-30T22:14:39.878Z,15.50
2018-09-30T22:17:08.621Z,15.50
2018-09-30T22:19:37.212Z,15.40
2018-09-30T22:22:06.482Z,15.70
2018-09-30T22:24:35.119Z,15.50
2018-09-30T22:27:03.805Z,15.60
2018-09-30T22:29:32.305Z,15.60
2018-09-30T22:32:00.952Z,15.70
2018-09-30T22:34:29.512Z,15.70
2018-09-30T22:36:58.137Z,15.80
2018-09-30T22:39:27.405Z,15.70
2018-09-30T22:41:55.973Z,15.70
2018-09-30T22:44:25.422Z,15.70
2018-09-30T22:46:54.096Z,15.60
2018-09-30T22:49:22.671Z,15.90
2018-09-30T22:51:51.379Z,15.90
2018-09-30T22:54:20.021Z,15.70
2018-09-30T22:56:48.682Z,15.60
2018-09-30T22:59:17.382Z,15.80
2018-09-30T23:01:45.973Z,15.70
2018-09-30T23:04:14.630Z,15.70
2018-09-30T23:06:43.156Z,15.60
2018-09-30T23:09:11.847Z,15.50
2018-09-30T23:11:40.430Z,15.70
2018-09-30T23:14:09.146Z,15.60
2018-09-30T23:16:37.961Z,15.40
2018-09-30T23:19:06.795Z,15.70
2018-09-30T23:21:35.398Z,15.40
2018-09-30T23:24:04.112Z,15.50
2018-09-30T23:26:32.698Z,15.30
2018-09-30T23:29:01.376Z,15.40
2018-09-30T23:31:30.980Z,15.60
2018-09-30T23:33:59.540Z,15.40
2018-09-30T23:36:28.148Z,15.40
2018-09-30T23:38:56.944Z,15.70
2018-09-30T23:41:25.488Z,15.50
2018-09-30T23:43:54.162Z,15.50
2018-09-30T23:46:22.712Z,15.60
2018-09-30T23:48:51.577Z,15.30
2018-09-30T23:51:20.246Z,15.60
2018-09-30T23:53:49.181Z,15.60
2018-09-30T23:56:17.740Z,15.20
2018-09-30T23:58:46.327Z,15.50
